sensor_id;sensor_type;location;lat;lon;timestamp;P1;P2;P0
44350;PMS5003;62766;62.622;17.912;2022-09-23T00:01:05;5;4;
44350;PMS5003;62766;62.622;17.912;2022-09-23T00:03:36;3;3;
44350;PMS5003;62766;62.622;17.912;2022-09-23T00:06:13;2;2;
44350;PMS5003;62766;62.622;17.912;2022-09-23T00:08:44;3;3;
44350;PMS5003;62766;62.622;17.912;2022-09-23T00:11:13;2;2;
44350;PMS5003;62766;62.622;17.912;2022-09-23T00:13:44;2;2;
44350;PMS5003;62766;62.622;17.912;2022-09-23T00:16:16;2;2;
44350;PMS5003;62766;62.622;17.912;2022-09-23T00:18:47;4;4;
44350;PMS5003;62766;62.622;17.912;2022-09-23T00:21:15;4;4;
44350;PMS5003;62766;62.622;17.912;2022-09-23T00:23:45;3;3;
44350;PMS5003;62766;62.622;17.912;2022-09-23T00:26:16;6;4;
44350;PMS5003;62766;62.622;17.912;2022-09-23T00:28:45;4;4;
44350;PMS5003;62766;62.622;17.912;2022-09-23T00:31:16;4;2;
44350;PMS5003;62766;62.622;17.912;2022-09-23T00:33:46;3;3;
44350;PMS5003;62766;62.622;17.912;2022-09-23T00:36:20;3;3;
44350;PMS5003;62766;62.622;17.912;2022-09-23T00:38:48;4;4;
44350;PMS5003;62766;62.622;17.912;2022-09-23T00:41:16;3;3;
44350;PMS5003;62766;62.622;17.912;2022-09-23T00:43:47;3;3;
44350;PMS5003;62766;62.622;17.912;2022-09-23T00:46:19;4;3;
44350;PMS5003;62766;62.622;17.912;2022-09-23T00:48:50;5;3;
44350;PMS5003;62766;62.622;17.912;2022-09-23T00:51:24;2;2;
44350;PMS5003;62766;62.622;17.912;2022-09-23T00:54:00;3;3;
44350;PMS5003;62766;62.622;17.912;2022-09-23T00:56:30;3;3;
44350;PMS5003;62766;62.622;17.912;2022-09-23T00:59:00;4;3;
44350;PMS5003;62766;62.622;17.912;2022-09-23T01:01:30;3;3;
44350;PMS5003;62766;62.622;17.912;2022-09-23T01:03:59;3;3;
44350;PMS5003;62766;62.622;17.912;2022-09-23T01:06:27;4;3;
44350;PMS5003;62766;62.622;17.912;2022-09-23T01:08:55;3;3;
44350;PMS5003;62766;62.622;17.912;2022-09-23T01:11:28;3;3;
44350;PMS5003;62766;62.622;17.912;2022-09-23T01:14:08;3;3;
44350;PMS5003;62766;62.622;17.912;2022-09-23T01:16:49;2;2;
44350;PMS5003;62766;62.622;17.912;2022-09-23T01:19:33;3;3;
44350;PMS5003;62766;62.622;17.912;2022-09-23T01:22:16;4;3;
44350;PMS5003;62766;62.622;17.912;2022-09-23T01:24:55;3;3;
44350;PMS5003;62766;62.622;17.912;2022-09-23T01:27:39;4;4;
44350;PMS5003;62766;62.622;17.912;2022-09-23T01:30:51;3;3;
44350;PMS5003;62766;62.622;17.912;2022-09-23T01:33:32;4;4;
44350;PMS5003;62766;62.622;17.912;2022-09-23T01:36:09;3;3;
44350;PMS5003;62766;62.622;17.912;2022-09-23T01:38:49;4;4;
44350;PMS5003;62766;62.622;17.912;2022-09-23T01:41:32;3;3;
44350;PMS5003;62766;62.622;17.912;2022-09-23T01:44:17;3;3;
44350;PMS5003;62766;62.622;17.912;2022-09-23T01:46:50;3;3;
44350;PMS5003;62766;62.622;17.912;2022-09-23T01:49:25;3;3;
44350;PMS5003;62766;62.622;17.912;2022-09-23T01:51:59;2;2;
44350;PMS5003;62766;62.622;17.912;2022-09-23T01:54:42;4;4;
44350;PMS5003;62766;62.622;17.912;2022-09-23T01:57:17;1;1;
44350;PMS5003;62766;62.622;17.912;2022-09-23T01:59:52;4;4;
44350;PMS5003;62766;62.622;17.912;2022-09-23T02:02:25;3;3;
44350;PMS5003;62766;62.622;17.912;2022-09-23T02:04:59;3;3;
44350;PMS5003;62766;62.622;17.912;2022-09-23T02:07:35;2;2;
44350;PMS5003;62766;62.622;17.912;2022-09-23T02:10:10;3;3;
44350;PMS5003;62766;62.622;17.912;2022-09-23T02:12:44;4;4;
44350;PMS5003;62766;62.622;17.912;2022-09-23T02:15:15;3;3;
44350;PMS5003;62766;62.622;17.912;2022-09-23T02:17:49;5;3;
44350;PMS5003;62766;62.622;17.912;2022-09-23T02:20:22;3;3;
44350;PMS5003;62766;62.622;17.912;2022-09-23T02:22:56;5;4;
44350;PMS5003;62766;62.622;17.912;2022-09-23T02:25:33;2;2;
44350;PMS5003;62766;62.622;17.912;2022-09-23T02:28:07;4;4;
44350;PMS5003;62766;62.622;17.912;2022-09-23T02:30:42;3;3;
44350;PMS5003;62766;62.622;17.912;2022-09-23T02:33:17;5;4;
44350;PMS5003;62766;62.622;17.912;2022-09-23T02:35:50;4;4;
44350;PMS5003;62766;62.622;17.912;2022-09-23T02:38:28;4;4;
44350;PMS5003;62766;62.622;17.912;2022-09-23T02:41:03;4;3;
44350;PMS5003;62766;62.622;17.912;2022-09-23T02:43:36;3;3;
44350;PMS5003;62766;62.622;17.912;2022-09-23T02:46:12;5;5;
44350;PMS5003;62766;62.622;17.912;2022-09-23T02:48:43;5;5;
44350;PMS5003;62766;62.622;17.912;2022-09-23T02:51:15;3;3;
44350;PMS5003;62766;62.622;17.912;2022-09-23T02:53:44;4;4;
44350;PMS5003;62766;62.622;17.912;2022-09-23T02:56:14;3;2;
44350;PMS5003;62766;62.622;17.912;2022-09-23T02:58:45;5;3;
44350;PMS5003;62766;62.622;17.912;2022-09-23T03:01:25;4;4;
44350;PMS5003;62766;62.622;17.912;2022-09-23T03:04:09;4;4;
44350;PMS5003;62766;62.622;17.912;2022-09-23T03:06:46;4;4;
44350;PMS5003;62766;62.622;17.912;2022-09-23T03:09:28;6;5;
44350;PMS5003;62766;62.622;17.912;2022-09-23T03:12:04;3;3;
44350;PMS5003;62766;62.622;17.912;2022-09-23T03:14:42;4;4;
44350;PMS5003;62766;62.622;17.912;2022-09-23T03:17:19;4;4;
44350;PMS5003;62766;62.622;17.912;2022-09-23T03:19:54;4;4;
44350;PMS5003;62766;62.622;17.912;2022-09-23T03:22:27;1;1;
44350;PMS5003;62766;62.622;17.912;2022-09-23T03:24:59;4;4;
44350;PMS5003;62766;62.622;17.912;2022-09-23T03:27:32;2;2;
44350;PMS5003;62766;62.622;17.912;2022-09-23T03:30:04;2;2;
44350;PMS5003;62766;62.622;17.912;2022-09-23T03:32:35;3;3;
44350;PMS5003;62766;62.622;17.912;2022-09-23T03:35:05;4;4;
44350;PMS5003;62766;62.622;17.912;2022-09-23T03:37:37;2;2;
44350;PMS5003;62766;62.622;17.912;2022-09-23T03:40:11;4;4;
44350;PMS5003;62766;62.622;17.912;2022-09-23T03:42:42;3;3;
44350;PMS5003;62766;62.622;17.912;2022-09-23T03:45:11;3;3;
44350;PMS5003;62766;62.622;17.912;2022-09-23T03:47:44;4;4;
44350;PMS5003;62766;62.622;17.912;2022-09-23T03:50:14;4;4;
44350;PMS5003;62766;62.622;17.912;2022-09-23T03:52:42;3;3;
44350;PMS5003;62766;62.622;17.912;2022-09-23T03:55:12;3;3;
44350;PMS5003;62766;62.622;17.912;2022-09-23T03:57:40;3;2;
44350;PMS5003;62766;62.622;17.912;2022-09-23T04:03:19;4;3;
44350;PMS5003;62766;62.622;17.912;2022-09-23T04:05:47;5;3;
44350;PMS5003;62766;62.622;17.912;2022-09-23T04:08:16;4;4;
44350;PMS5003;62766;62.622;17.912;2022-09-23T04:10:44;4;4;
44350;PMS5003;62766;62.622;17.912;2022-09-23T04:13:12;3;3;
44350;PMS5003;62766;62.622;17.912;2022-09-23T04:15:40;2;2;
44350;PMS5003;62766;62.622;17.912;2022-09-23T04:18:09;6;5;
44350;PMS5003;62766;62.622;17.912;2022-09-23T04:20:38;4;4;
44350;PMS5003;62766;62.622;17.912;2022-09-23T04:23:07;2;2;
44350;PMS5003;62766;62.622;17.912;2022-09-23T04:25:35;5;4;
44350;PMS5003;62766;62.622;17.912;2022-09-23T04:28:11;3;3;
44350;PMS5003;62766;62.622;17.912;2022-09-23T04:30:39;5;5;
44350;PMS5003;62766;62.622;17.912;2022-09-23T04:33:09;3;3;
44350;PMS5003;62766;62.622;17.912;2022-09-23T04:35:37;4;4;
44350;PMS5003;62766;62.622;17.912;2022-09-23T04:38:08;6;6;
44350;PMS5003;62766;62.622;17.912;2022-09-23T04:40:37;4;4;
44350;PMS5003;62766;62.622;17.912;2022-09-23T04:43:05;8;5;
44350;PMS5003;62766;62.622;17.912;2022-09-23T04:45:33;4;4;
44350;PMS5003;62766;62.622;17.912;2022-09-23T04:48:02;2;2;
44350;PMS5003;62766;62.622;17.912;2022-09-23T04:50:31;5;5;
44350;PMS5003;62766;62.622;17.912;2022-09-23T04:53:01;4;3;
44350;PMS5003;62766;62.622;17.912;2022-09-23T04:55:30;3;3;
44350;PMS5003;62766;62.622;17.912;2022-09-23T04:57:58;3;3;
44350;PMS5003;62766;62.622;17.912;2022-09-23T05:00:26;2;2;
44350;PMS5003;62766;62.622;17.912;2022-09-23T05:02:54;4;4;
44350;PMS5003;62766;62.622;17.912;2022-09-23T05:05:23;4;4;
44350;PMS5003;62766;62.622;17.912;2022-09-23T05:07:53;5;5;
44350;PMS5003;62766;62.622;17.912;2022-09-23T05:10:23;6;5;
44350;PMS5003;62766;62.622;17.912;2022-09-23T05:12:53;4;4;
44350;PMS5003;62766;62.622;17.912;2022-09-23T05:15:21;3;3;
44350;PMS5003;62766;62.622;17.912;2022-09-23T05:17:49;5;5;
44350;PMS5003;62766;62.622;17.912;2022-09-23T05:20:17;6;6;
44350;PMS5003;62766;62.622;17.912;2022-09-23T05:22:45;3;3;
44350;PMS5003;62766;62.622;17.912;2022-09-23T05:25:14;6;5;
44350;PMS5003;62766;62.622;17.912;2022-09-23T05:27:42;4;3;
44350;PMS5003;62766;62.622;17.912;2022-09-23T05:30:10;5;5;
44350;PMS5003;62766;62.622;17.912;2022-09-23T05:32:38;4;4;
44350;PMS5003;62766;62.622;17.912;2022-09-23T05:35:07;5;5;
44350;PMS5003;62766;62.622;17.912;2022-09-23T05:37:36;3;3;
44350;PMS5003;62766;62.622;17.912;2022-09-23T05:40:05;4;4;
44350;PMS5003;62766;62.622;17.912;2022-09-23T05:42:35;5;3;
44350;PMS5003;62766;62.622;17.912;2022-09-23T05:45:03;4;4;
44350;PMS5003;62766;62.622;17.912;2022-09-23T05:47:33;3;3;
44350;PMS5003;62766;62.622;17.912;2022-09-23T05:50:01;4;4;
44350;PMS5003;62766;62.622;17.912;2022-09-23T05:52:30;5;5;
44350;PMS5003;62766;62.622;17.912;2022-09-23T05:54:58;3;3;
44350;PMS5003;62766;62.622;17.912;2022-09-23T05:57:26;5;5;
44350;PMS5003;62766;62.622;17.912;2022-09-23T05:59:55;6;5;
44350;PMS5003;62766;62.622;17.912;2022-09-23T06:02:23;5;5;
44350;PMS5003;62766;62.622;17.912;2022-09-23T06:04:53;4;4;
44350;PMS5003;62766;62.622;17.912;2022-09-23T06:07:21;6;6;
44350;PMS5003;62766;62.622;17.912;2022-09-23T06:09:49;6;4;
44350;PMS5003;62766;62.622;17.912;2022-09-23T06:12:20;4;4;
44350;PMS5003;62766;62.622;17.912;2022-09-23T06:14:48;3;3;
44350;PMS5003;62766;62.622;17.912;2022-09-23T06:17:16;4;4;
44350;PMS5003;62766;62.622;17.912;2022-09-23T06:19:44;4;4;
44350;PMS5003;62766;62.622;17.912;2022-09-23T06:22:12;4;4;
44350;PMS5003;62766;62.622;17.912;2022-09-23T06:24:41;5;5;
44350;PMS5003;62766;62.622;17.912;2022-09-23T06:27:09;4;4;
44350;PMS5003;62766;62.622;17.912;2022-09-23T06:29:37;2;2;
44350;PMS5003;62766;62.622;17.912;2022-09-23T06:32:05;4;4;
44350;PMS5003;62766;62.622;17.912;2022-09-23T06:34:33;3;3;
44350;PMS5003;62766;62.622;17.912;2022-09-23T06:37:02;4;4;
44350;PMS5003;62766;62.622;17.912;2022-09-23T06:39:30;4;4;
44350;PMS5003;62766;62.622;17.912;2022-09-23T06:41:58;7;4;
44350;PMS5003;62766;62.622;17.912;2022-09-23T06:44:26;5;4;
44350;PMS5003;62766;62.622;17.912;2022-09-23T06:46:54;4;4;
44350;PMS5003;62766;62.622;17.912;2022-09-23T06:49:23;4;4;
44350;PMS5003;62766;62.622;17.912;2022-09-23T06:51:52;3;3;
44350;PMS5003;62766;62.622;17.912;2022-09-23T06:54:21;4;3;
44350;PMS5003;62766;62.622;17.912;2022-09-23T06:56:49;4;4;
44350;PMS5003;62766;62.622;17.912;2022-09-23T06:59:17;3;3;
44350;PMS5003;62766;62.622;17.912;2022-09-23T07:01:45;4;4;
44350;PMS5003;62766;62.622;17.912;2022-09-23T07:04:13;5;5;
44350;PMS5003;62766;62.622;17.912;2022-09-23T07:06:41;7;5;
44350;PMS5003;62766;62.622;17.912;2022-09-23T07:09:10;5;4;
44350;PMS5003;62766;62.622;17.912;2022-09-23T07:11:38;4;4;
44350;PMS5003;62766;62.622;17.912;2022-09-23T07:14:06;5;5;
44350;PMS5003;62766;62.622;17.912;2022-09-23T07:16:34;4;4;
44350;PMS5003;62766;62.622;17.912;2022-09-23T07:19:02;4;4;
44350;PMS5003;62766;62.622;17.912;2022-09-23T07:21:30;6;6;
44350;PMS5003;62766;62.622;17.912;2022-09-23T07:23:59;6;6;
44350;PMS5003;62766;62.622;17.912;2022-09-23T07:26:27;5;5;
44350;PMS5003;62766;62.622;17.912;2022-09-23T07:28:55;6;6;
44350;PMS5003;62766;62.622;17.912;2022-09-23T07:31:25;10;6;
44350;PMS5003;62766;62.622;17.912;2022-09-23T07:33:55;5;5;
44350;PMS5003;62766;62.622;17.912;2022-09-23T07:36:25;6;5;
44350;PMS5003;62766;62.622;17.912;2022-09-23T07:38:55;6;5;
44350;PMS5003;62766;62.622;17.912;2022-09-23T07:41:24;9;9;
44350;PMS5003;62766;62.622;17.912;2022-09-23T07:43:54;4;4;
44350;PMS5003;62766;62.622;17.912;2022-09-23T07:46:24;6;6;
44350;PMS5003;62766;62.622;17.912;2022-09-23T07:48:55;6;5;
44350;PMS5003;62766;62.622;17.912;2022-09-23T07:51:26;5;5;
44350;PMS5003;62766;62.622;17.912;2022-09-23T07:53:57;4;4;
44350;PMS5003;62766;62.622;17.912;2022-09-23T07:56:26;5;5;
44350;PMS5003;62766;62.622;17.912;2022-09-23T07:58:56;4;4;
44350;PMS5003;62766;62.622;17.912;2022-09-23T08:01:25;8;8;
44350;PMS5003;62766;62.622;17.912;2022-09-23T08:03:55;5;5;
44350;PMS5003;62766;62.622;17.912;2022-09-23T08:06:24;8;8;
44350;PMS5003;62766;62.622;17.912;2022-09-23T08:08:55;5;5;
44350;PMS5003;62766;62.622;17.912;2022-09-23T08:11:26;4;4;
44350;PMS5003;62766;62.622;17.912;2022-09-23T08:13:56;7;7;
44350;PMS5003;62766;62.622;17.912;2022-09-23T08:16:24;10;10;
44350;PMS5003;62766;62.622;17.912;2022-09-23T08:18:54;10;10;
44350;PMS5003;62766;62.622;17.912;2022-09-23T08:21:24;11;9;
44350;PMS5003;62766;62.622;17.912;2022-09-23T08:23:53;11;10;
44350;PMS5003;62766;62.622;17.912;2022-09-23T08:26:21;10;10;
44350;PMS5003;62766;62.622;17.912;2022-09-23T08:28:50;8;7;
44350;PMS5003;62766;62.622;17.912;2022-09-23T08:31:19;8;7;
44350;PMS5003;62766;62.622;17.912;2022-09-23T08:33:52;5;5;
44350;PMS5003;62766;62.622;17.912;2022-09-23T08:36:21;7;7;
44350;PMS5003;62766;62.622;17.912;2022-09-23T08:38:51;6;6;
44350;PMS5003;62766;62.622;17.912;2022-09-23T08:41:22;8;6;
44350;PMS5003;62766;62.622;17.912;2022-09-23T08:44:00;6;6;
44350;PMS5003;62766;62.622;17.912;2022-09-23T08:46:32;7;7;
44350;PMS5003;62766;62.622;17.912;2022-09-23T08:49:04;6;6;
44350;PMS5003;62766;62.622;17.912;2022-09-23T08:51:35;6;6;
44350;PMS5003;62766;62.622;17.912;2022-09-23T08:54:08;7;7;
44350;PMS5003;62766;62.622;17.912;2022-09-23T08:56:38;7;7;
44350;PMS5003;62766;62.622;17.912;2022-09-23T08:59:11;7;5;
44350;PMS5003;62766;62.622;17.912;2022-09-23T09:01:47;6;6;
44350;PMS5003;62766;62.622;17.912;2022-09-23T09:04:21;7;7;
44350;PMS5003;62766;62.622;17.912;2022-09-23T09:06:52;8;7;
44350;PMS5003;62766;62.622;17.912;2022-09-23T09:09:27;6;6;
44350;PMS5003;62766;62.622;17.912;2022-09-23T09:12:02;6;6;
44350;PMS5003;62766;62.622;17.912;2022-09-23T09:14:40;7;7;
44350;PMS5003;62766;62.622;17.912;2022-09-23T09:17:12;8;6;
44350;PMS5003;62766;62.622;17.912;2022-09-23T09:19:50;8;8;
44350;PMS5003;62766;62.622;17.912;2022-09-23T09:22:21;3;3;
44350;PMS5003;62766;62.622;17.912;2022-09-23T09:25:00;6;6;
44350;PMS5003;62766;62.622;17.912;2022-09-23T09:27:37;4;4;
44350;PMS5003;62766;62.622;17.912;2022-09-23T09:30:10;4;4;
44350;PMS5003;62766;62.622;17.912;2022-09-23T09:32:39;8;7;
44350;PMS5003;62766;62.622;17.912;2022-09-23T09:35:17;8;6;
44350;PMS5003;62766;62.622;17.912;2022-09-23T09:37:53;6;5;
44350;PMS5003;62766;62.622;17.912;2022-09-23T09:40:21;7;6;
44350;PMS5003;62766;62.622;17.912;2022-09-23T09:42:49;5;5;
44350;PMS5003;62766;62.622;17.912;2022-09-23T09:45:22;7;7;
44350;PMS5003;62766;62.622;17.912;2022-09-23T09:48:00;7;7;
44350;PMS5003;62766;62.622;17.912;2022-09-23T09:50:44;6;6;
44350;PMS5003;62766;62.622;17.912;2022-09-23T09:53:15;7;5;
44350;PMS5003;62766;62.622;17.912;2022-09-23T09:55:57;7;7;
44350;PMS5003;62766;62.622;17.912;2022-09-23T09:58:31;6;6;
44350;PMS5003;62766;62.622;17.912;2022-09-23T10:03:38;5;5;
44350;PMS5003;62766;62.622;17.912;2022-09-23T10:06:17;5;5;
44350;PMS5003;62766;62.622;17.912;2022-09-23T10:09:02;6;5;
44350;PMS5003;62766;62.622;17.912;2022-09-23T10:11:36;8;7;
44350;PMS5003;62766;62.622;17.912;2022-09-23T10:14:10;6;6;
44350;PMS5003;62766;62.622;17.912;2022-09-23T10:16:41;7;6;
44350;PMS5003;62766;62.622;17.912;2022-09-23T10:19:11;7;7;
44350;PMS5003;62766;62.622;17.912;2022-09-23T10:21:44;5;5;
44350;PMS5003;62766;62.622;17.912;2022-09-23T10:24:20;8;7;
44350;PMS5003;62766;62.622;17.912;2022-09-23T10:26:51;4;4;
44350;PMS5003;62766;62.622;17.912;2022-09-23T10:29:28;5;5;
44350;PMS5003;62766;62.622;17.912;2022-09-23T10:32:32;8;8;
44350;PMS5003;62766;62.622;17.912;2022-09-23T10:35:02;5;5;
44350;PMS5003;62766;62.622;17.912;2022-09-23T10:37:39;5;5;
44350;PMS5003;62766;62.622;17.912;2022-09-23T10:40:13;7;7;
44350;PMS5003;62766;62.622;17.912;2022-09-23T10:42:51;8;7;
44350;PMS5003;62766;62.622;17.912;2022-09-23T10:45:31;7;6;
44350;PMS5003;62766;62.622;17.912;2022-09-23T10:48:03;6;6;
44350;PMS5003;62766;62.622;17.912;2022-09-23T10:50:39;6;5;
44350;PMS5003;62766;62.622;17.912;2022-09-23T10:53:14;5;5;
44350;PMS5003;62766;62.622;17.912;2022-09-23T10:55:53;5;5;
44350;PMS5003;62766;62.622;17.912;2022-09-23T10:58:41;6;6;
44350;PMS5003;62766;62.622;17.912;2022-09-23T11:01:28;6;6;
44350;PMS5003;62766;62.622;17.912;2022-09-23T11:04:09;7;7;
44350;PMS5003;62766;62.622;17.912;2022-09-23T11:06:58;7;7;
44350;PMS5003;62766;62.622;17.912;2022-09-23T11:09:38;6;5;
44350;PMS5003;62766;62.622;17.912;2022-09-23T11:12:21;5;5;
44350;PMS5003;62766;62.622;17.912;2022-09-23T11:15:01;6;6;
44350;PMS5003;62766;62.622;17.912;2022-09-23T11:17:49;5;5;
44350;PMS5003;62766;62.622;17.912;2022-09-23T11:20:38;7;5;
44350;PMS5003;62766;62.622;17.912;2022-09-23T11:23:23;8;6;
44350;PMS5003;62766;62.622;17.912;2022-09-23T11:26:09;5;5;
44350;PMS5003;62766;62.622;17.912;2022-09-23T11:28:53;8;6;
44350;PMS5003;62766;62.622;17.912;2022-09-23T11:31:41;7;7;
44350;PMS5003;62766;62.622;17.912;2022-09-23T11:34:23;7;7;
44350;PMS5003;62766;62.622;17.912;2022-09-23T11:37:08;6;6;
44350;PMS5003;62766;62.622;17.912;2022-09-23T11:39:40;6;6;
44350;PMS5003;62766;62.622;17.912;2022-09-23T11:42:16;7;7;
44350;PMS5003;62766;62.622;17.912;2022-09-23T11:44:48;9;9;
44350;PMS5003;62766;62.622;17.912;2022-09-23T11:47:21;8;7;
44350;PMS5003;62766;62.622;17.912;2022-09-23T11:49:56;8;8;
44350;PMS5003;62766;62.622;17.912;2022-09-23T11:52:30;9;9;
44350;PMS5003;62766;62.622;17.912;2022-09-23T11:55:02;8;8;
44350;PMS5003;62766;62.622;17.912;2022-09-23T11:57:39;4;4;
44350;PMS5003;62766;62.622;17.912;2022-09-23T12:00:13;7;7;
44350;PMS5003;62766;62.622;17.912;2022-09-23T12:02:49;8;7;
44350;PMS5003;62766;62.622;17.912;2022-09-23T12:05:26;7;6;
44350;PMS5003;62766;62.622;17.912;2022-09-23T12:08:02;8;8;
44350;PMS5003;62766;62.622;17.912;2022-09-23T12:10:39;8;8;
44350;PMS5003;62766;62.622;17.912;2022-09-23T12:13:17;6;6;
44350;PMS5003;62766;62.622;17.912;2022-09-23T12:15:55;9;7;
44350;PMS5003;62766;62.622;17.912;2022-09-23T12:18:41;6;6;
44350;PMS5003;62766;62.622;17.912;2022-09-23T12:21:24;7;7;
44350;PMS5003;62766;62.622;17.912;2022-09-23T12:24:06;7;7;
44350;PMS5003;62766;62.622;17.912;2022-09-23T12:26:49;5;4;
44350;PMS5003;62766;62.622;17.912;2022-09-23T12:29:23;7;5;
44350;PMS5003;62766;62.622;17.912;2022-09-23T12:31:54;4;4;
44350;PMS5003;62766;62.622;17.912;2022-09-23T12:34:26;5;5;
44350;PMS5003;62766;62.622;17.912;2022-09-23T12:37:00;5;5;
44350;PMS5003;62766;62.622;17.912;2022-09-23T12:39:29;4;4;
44350;PMS5003;62766;62.622;17.912;2022-09-23T12:42:01;6;5;
44350;PMS5003;62766;62.622;17.912;2022-09-23T12:44:31;5;5;
44350;PMS5003;62766;62.622;17.912;2022-09-23T12:47:36;7;7;
44350;PMS5003;62766;62.622;17.912;2022-09-23T12:51:13;7;5;
44350;PMS5003;62766;62.622;17.912;2022-09-23T12:53:52;4;4;
44350;PMS5003;62766;62.622;17.912;2022-09-23T12:56:25;6;6;
44350;PMS5003;62766;62.622;17.912;2022-09-23T12:58:57;5;4;
44350;PMS5003;62766;62.622;17.912;2022-09-23T13:01:34;4;4;
44350;PMS5003;62766;62.622;17.912;2022-09-23T13:04:05;5;5;
44350;PMS5003;62766;62.622;17.912;2022-09-23T13:07:03;7;7;
44350;PMS5003;62766;62.622;17.912;2022-09-23T13:09:40;6;6;
44350;PMS5003;62766;62.622;17.912;2022-09-23T13:12:12;5;4;
44350;PMS5003;62766;62.622;17.912;2022-09-23T13:14:47;9;6;
44350;PMS5003;62766;62.622;17.912;2022-09-23T13:17:22;6;6;
44350;PMS5003;62766;62.622;17.912;2022-09-23T13:19:58;7;5;
44350;PMS5003;62766;62.622;17.912;2022-09-23T13:23:33;4;4;
44350;PMS5003;62766;62.622;17.912;2022-09-23T13:26:09;6;6;
44350;PMS5003;62766;62.622;17.912;2022-09-23T13:28:38;5;5;
44350;PMS5003;62766;62.622;17.912;2022-09-23T13:31:12;7;5;
44350;PMS5003;62766;62.622;17.912;2022-09-23T13:33:44;5;5;
44350;PMS5003;62766;62.622;17.912;2022-09-23T13:36:15;6;6;
44350;PMS5003;62766;62.622;17.912;2022-09-23T13:38:44;5;5;
44350;PMS5003;62766;62.622;17.912;2022-09-23T13:41:13;4;4;
44350;PMS5003;62766;62.622;17.912;2022-09-23T13:43:44;4;4;
44350;PMS5003;62766;62.622;17.912;2022-09-23T13:46:16;5;5;
44350;PMS5003;62766;62.622;17.912;2022-09-23T13:48:48;7;5;
44350;PMS5003;62766;62.622;17.912;2022-09-23T13:51:22;4;4;
44350;PMS5003;62766;62.622;17.912;2022-09-23T13:53:52;5;4;
44350;PMS5003;62766;62.622;17.912;2022-09-23T13:56:24;4;4;
44350;PMS5003;62766;62.622;17.912;2022-09-23T13:59:00;4;4;
44350;PMS5003;62766;62.622;17.912;2022-09-23T14:01:41;4;4;
44350;PMS5003;62766;62.622;17.912;2022-09-23T14:04:18;6;5;
44350;PMS5003;62766;62.622;17.912;2022-09-23T14:06:51;6;4;
44350;PMS5003;62766;62.622;17.912;2022-09-23T14:09:22;5;5;
44350;PMS5003;62766;62.622;17.912;2022-09-23T14:11:53;4;4;
44350;PMS5003;62766;62.622;17.912;2022-09-23T14:14:24;6;6;
44350;PMS5003;62766;62.622;17.912;2022-09-23T14:16:54;5;5;
44350;PMS5003;62766;62.622;17.912;2022-09-23T14:19:26;5;5;
44350;PMS5003;62766;62.622;17.912;2022-09-23T14:21:54;5;5;
44350;PMS5003;62766;62.622;17.912;2022-09-23T14:24:28;5;5;
44350;PMS5003;62766;62.622;17.912;2022-09-23T14:26:59;6;6;
44350;PMS5003;62766;62.622;17.912;2022-09-23T14:29:36;4;4;
44350;PMS5003;62766;62.622;17.912;2022-09-23T14:32:09;5;5;
44350;PMS5003;62766;62.622;17.912;2022-09-23T14:34:40;4;4;
44350;PMS5003;62766;62.622;17.912;2022-09-23T14:37:14;4;4;
44350;PMS5003;62766;62.622;17.912;2022-09-23T14:39:50;5;5;
44350;PMS5003;62766;62.622;17.912;2022-09-23T14:42:18;3;3;
44350;PMS5003;62766;62.622;17.912;2022-09-23T14:44:47;7;6;
44350;PMS5003;62766;62.622;17.912;2022-09-23T14:47:16;5;5;
44350;PMS5003;62766;62.622;17.912;2022-09-23T14:49:45;4;4;
44350;PMS5003;62766;62.622;17.912;2022-09-23T14:52:14;8;7;
44350;PMS5003;62766;62.622;17.912;2022-09-23T14:54:44;6;4;
44350;PMS5003;62766;62.622;17.912;2022-09-23T14:57:18;6;6;
44350;PMS5003;62766;62.622;17.912;2022-09-23T14:59:53;6;5;
44350;PMS5003;62766;62.622;17.912;2022-09-23T15:02:26;6;4;
44350;PMS5003;62766;62.622;17.912;2022-09-23T15:05:06;3;3;
44350;PMS5003;62766;62.622;17.912;2022-09-23T15:07:41;4;4;
44350;PMS5003;62766;62.622;17.912;2022-09-23T15:10:14;5;4;
44350;PMS5003;62766;62.622;17.912;2022-09-23T15:12:48;6;5;
44350;PMS5003;62766;62.622;17.912;2022-09-23T15:15:22;4;4;
44350;PMS5003;62766;62.622;17.912;2022-09-23T15:18:02;5;5;
44350;PMS5003;62766;62.622;17.912;2022-09-23T15:20:35;5;5;
44350;PMS5003;62766;62.622;17.912;2022-09-23T15:23:29;4;4;
44350;PMS5003;62766;62.622;17.912;2022-09-23T15:26:02;4;4;
44350;PMS5003;62766;62.622;17.912;2022-09-23T15:28:34;6;6;
44350;PMS5003;62766;62.622;17.912;2022-09-23T15:31:02;6;6;
44350;PMS5003;62766;62.622;17.912;2022-09-23T15:33:40;5;5;
44350;PMS5003;62766;62.622;17.912;2022-09-23T15:36:14;5;5;
44350;PMS5003;62766;62.622;17.912;2022-09-23T15:38:46;4;4;
44350;PMS5003;62766;62.622;17.912;2022-09-23T15:41:15;4;4;
44350;PMS5003;62766;62.622;17.912;2022-09-23T15:43:44;2;2;
44350;PMS5003;62766;62.622;17.912;2022-09-23T15:46:12;4;3;
44350;PMS5003;62766;62.622;17.912;2022-09-23T15:48:46;4;3;
44350;PMS5003;62766;62.622;17.912;2022-09-23T15:51:22;3;3;
44350;PMS5003;62766;62.622;17.912;2022-09-23T15:53:50;3;3;
44350;PMS5003;62766;62.622;17.912;2022-09-23T15:56:19;2;2;
44350;PMS5003;62766;62.622;17.912;2022-09-23T15:58:47;6;5;
44350;PMS5003;62766;62.622;17.912;2022-09-23T16:03:33;3;3;
44350;PMS5003;62766;62.622;17.912;2022-09-23T16:06:01;3;1;
44350;PMS5003;62766;62.622;17.912;2022-09-23T16:08:29;3;3;
44350;PMS5003;62766;62.622;17.912;2022-09-23T16:10:57;4;4;
44350;PMS5003;62766;62.622;17.912;2022-09-23T16:13:25;3;3;
44350;PMS5003;62766;62.622;17.912;2022-09-23T16:15:53;5;2;
44350;PMS5003;62766;62.622;17.912;2022-09-23T16:18:21;2;2;
44350;PMS5003;62766;62.622;17.912;2022-09-23T16:20:50;3;3;
44350;PMS5003;62766;62.622;17.912;2022-09-23T16:23:21;4;4;
44350;PMS5003;62766;62.622;17.912;2022-09-23T16:25:51;4;4;
44350;PMS5003;62766;62.622;17.912;2022-09-23T16:28:19;3;3;
44350;PMS5003;62766;62.622;17.912;2022-09-23T16:30:47;2;2;
44350;PMS5003;62766;62.622;17.912;2022-09-23T16:33:15;3;3;
44350;PMS5003;62766;62.622;17.912;2022-09-23T16:35:44;3;3;
44350;PMS5003;62766;62.622;17.912;2022-09-23T16:38:12;3;3;
44350;PMS5003;62766;62.622;17.912;2022-09-23T16:40:40;4;4;
44350;PMS5003;62766;62.622;17.912;2022-09-23T16:43:08;3;3;
44350;PMS5003;62766;62.622;17.912;2022-09-23T16:45:36;1;1;
44350;PMS5003;62766;62.622;17.912;2022-09-23T16:48:06;3;3;
44350;PMS5003;62766;62.622;17.912;2022-09-23T16:50:34;5;3;
44350;PMS5003;62766;62.622;17.912;2022-09-23T16:53:02;4;4;
44350;PMS5003;62766;62.622;17.912;2022-09-23T16:55:31;4;2;
44350;PMS5003;62766;62.622;17.912;2022-09-23T16:57:59;2;2;
44350;PMS5003;62766;62.622;17.912;2022-09-23T17:00:27;3;3;
44350;PMS5003;62766;62.622;17.912;2022-09-23T17:02:56;2;2;
44350;PMS5003;62766;62.622;17.912;2022-09-23T17:05:24;3;3;
44350;PMS5003;62766;62.622;17.912;2022-09-23T17:07:52;2;2;
44350;PMS5003;62766;62.622;17.912;2022-09-23T17:10:20;3;3;
44350;PMS5003;62766;62.622;17.912;2022-09-23T17:12:48;1;1;
44350;PMS5003;62766;62.622;17.912;2022-09-23T17:15:16;3;3;
44350;PMS5003;62766;62.622;17.912;2022-09-23T17:17:45;5;2;
44350;PMS5003;62766;62.622;17.912;2022-09-23T17:20:13;3;3;